Kristin D — C6XA6 — position and weather

sailwx.info

Track history (hours):
 
Tides and Currents Weather Stations Pressure Air Temp Water Temp Dewpoint Dewpoint Depression Visibility Wind Speed Wind Dir Waves Ship Positions

Kristin D

Last reported at 2017-Apr-28 00:23 UTC. Time now 2017-Apr-28 00:37 UTC.
Position N 56°39' E 016°22'.

Length 90 m; draft 4 m.

Type: Cargo ship. MMSI: 311003700.

Date/timePositionNaut miles runAvg speedWind from/ knotsBaromVisibWave heightAir tempDewpointWater temp
2017-Apr-28 00:23N 56°39' E 016°22'0 0.0
2017-Apr-27 23:59N 56°39' E 016°22'0 0.0
2017-Apr-27 23:26N 56°39' E 016°22'0 0.0
2017-Apr-27 22:56N 56°39' E 016°22'0 0.0
2017-Apr-27 22:29N 56°39' E 016°22'0 0.0
2017-Apr-27 21:59N 56°39' E 016°22'0 0.0
2017-Apr-27 21:29N 56°39' E 016°22'0 0.0
2017-Apr-27 20:56N 56°39' E 016°22'0 0.0
2017-Apr-27 19:41N 56°39' E 016°22'0 0.0
2017-Apr-27 19:29N 56°39' E 016°22'0 0.0
2017-Apr-27 18:56N 56°39' E 016°22'0 0.0
2017-Apr-27 13:43N 56°39' E 016°22'0 0.0
2017-Apr-27 13:13N 56°39' E 016°22'0 0.0
2017-Apr-27 12:55N 56°39' E 016°22'0 0.0
2017-Apr-27 12:28N 56°39' E 016°22'0 0.0
2017-Apr-27 11:58N 56°39' E 016°22'0 0.0
2017-Apr-27 11:25N 56°39' E 016°22'0 0.0
2017-Apr-27 10:58N 56°39' E 016°22'0 0.0
2017-Apr-27 10:19N 56°39' E 016°22'72 2.7
2017-Apr-26 07:09N 55°36' E 015°18'710.2
2017-Apr-26 06:29N 55°33' E 015°08'610.1
2017-Apr-26 05:53N 55°30' E 014°59'410.0
2017-Apr-26 05:27N 55°27' E 014°52'510.6
2017-Apr-26 04:58N 55°25' E 014°44'510.4
2017-Apr-26 04:29N 55°22' E 014°37'510.6
2017-Apr-26 04:00N 55°18' E 014°31'5 9.8
2017-Apr-26 03:30N 55°14' E 014°25'5 9.5
2017-Apr-26 02:59N 55°11' E 014°19'5 9.8
2017-Apr-26 02:30N 55°11' E 014°11'5 9.9
2017-Apr-26 02:00N 55°11' E 014°02'510.0
2017-Apr-26 01:30N 55°11' E 013°53'5 9.9
2017-Apr-26 01:00N 55°12' E 013°45'5 9.9
2017-Apr-26 00:30N 55°12' E 013°36'710.0
2017-Apr-25 23:50N 55°13' E 013°24'410.2
2017-Apr-25 23:30N 55°13' E 013°18'510.0
2017-Apr-25 23:00N 55°14' E 013°10'510.2
2017-Apr-25 22:30N 55°14' E 013°01'510.4
2017-Apr-25 22:00N 55°15' E 012°52'510.4
2017-Apr-25 21:30N 55°17' E 012°43'4 9.0
2017-Apr-25 21:00N 55°20' E 012°38'510.6
2017-Apr-25 20:30N 55°25' E 012°40'510.5
2017-Apr-25 20:00N 55°31' E 012°42'510.6
2017-Apr-25 19:30N 55°36' E 012°42'611.6
2017-Apr-25 19:00N 55°42' E 012°41'611.5
2017-Apr-25 18:30N 55°47' E 012°41'611.4
2017-Apr-25 18:00N 55°53' E 012°39'611.5
2017-Apr-25 17:30N 55°59' E 012°38'510.3
2017-Apr-25 17:00N 56°04' E 012°37'611.6
2017-Apr-25 16:30N 56°08' E 012°30'511.0
2017-Apr-25 16:00N 56°13' E 012°26'5210.7
2017-Apr-25 11:12N 56°60' E 011°46'210.7
2017-Apr-25 10:59N 57°02' E 011°44'510.2
2017-Apr-25 10:30N 57°07' E 011°41'510.5
2017-Apr-25 10:00N 57°11' E 011°38'510.8
2017-Apr-25 09:30N 57°17' E 011°35'510.7
2017-Apr-25 09:00N 57°22' E 011°32'510.6
2017-Apr-25 08:30N 57°27' E 011°29'510.6
2017-Apr-25 07:59N 57°32' E 011°26'510.5
2017-Apr-25 07:28N 57°37' E 011°24'510.8
2017-Apr-25 07:00N 57°42' E 011°21'611.0
2017-Apr-25 06:30N 57°47' E 011°18'611.5
2017-Apr-25 05:58N 57°53' E 011°15'510.9
2017-Apr-25 05:30N 57°58' E 011°12'510.3
2017-Apr-25 05:00N 58°03' E 011°10'5 9.7
2017-Apr-25 04:27N 58°08' E 011°07'5 9.6
2017-Apr-25 03:58N 58°13' E 011°04'5 9.6
2017-Apr-25 03:30N 58°17' E 011°02'5 9.4
2017-Apr-25 03:00N 58°21' E 010°59'510.0
2017-Apr-25 02:30N 58°26' E 010°56'510.2
2017-Apr-25 02:00N 58°31' E 010°54'510.2
2017-Apr-25 01:30N 58°36' E 010°51'5 9.4
2017-Apr-25 01:00N 58°41' E 010°49'5 9.3
2017-Apr-25 00:30N 58°45' E 010°47'5 9.5
2017-Apr-25 00:00N 58°50' E 010°47'5 9.8
2017-Apr-24 23:30N 58°55' E 010°46'510.2
2017-Apr-24 23:00N 58°60' E 010°45'4 7.9
2017-Apr-24 22:30N 59°01' E 010°52'3 6.6
2017-Apr-24 22:00N 59°02' E 010°58'611.7
2017-Apr-24 21:30N 59°08' E 010°58'3 6.6
2017-Apr-24 21:00N 59°11' E 010°57'0 0.0
2017-Apr-24 20:29N 59°11' E 010°57'0 0.0
2017-Apr-24 19:59N 59°11' E 010°57'0 0.0
2017-Apr-24 19:29N 59°11' E 010°57'0 0.0
2017-Apr-24 18:59N 59°11' E 010°57'0 0.0
2017-Apr-24 18:29N 59°11' E 010°57'0 0.0
2017-Apr-24 17:59N 59°11' E 010°57'0 0.0
2017-Apr-24 17:29N 59°11' E 010°57'0 0.0
2017-Apr-24 16:59N 59°11' E 010°57'0 0.0
2017-Apr-24 16:29N 59°11' E 010°57'0 0.0
2017-Apr-24 15:59N 59°11' E 010°57'0 0.0
2017-Apr-24 15:29N 59°11' E 010°57'0 0.0
2017-Apr-24 14:59N 59°11' E 010°57'0 0.0
2017-Apr-24 14:29N 59°11' E 010°57'0 0.0
2017-Apr-24 13:29N 59°11' E 010°57'0 0.0
2017-Apr-24 12:59N 59°11' E 010°57'0 0.0
2017-Apr-24 12:29N 59°11' E 010°57'0 0.0
2017-Apr-24 11:59N 59°11' E 010°57'0 0.0
2017-Apr-24 11:29N 59°11' E 010°57'0 0.0
2017-Apr-24 10:59N 59°11' E 010°57'0 0.0
2017-Apr-24 10:29N 59°11' E 010°57'0 0.0
2017-Apr-24 09:59N 59°11' E 010°57'0 0.0
2017-Apr-24 09:29N 59°11' E 010°57'0 0.0
2017-Apr-24 08:59N 59°11' E 010°57'0 0.0
2017-Apr-24 08:29N 59°11' E 010°57'0 0.0
2017-Apr-24 07:59N 59°11' E 010°57'0 0.0
2017-Apr-24 07:29N 59°11' E 010°57'0 0.0
2017-Apr-24 06:59N 59°11' E 010°57'0 0.0
2017-Apr-24 06:29N 59°11' E 010°57'0 0.0
2017-Apr-24 05:59N 59°11' E 010°57'0 0.0
2017-Apr-24 05:29N 59°11' E 010°57'0 0.0
2017-Apr-24 04:59N 59°11' E 010°57'0 0.0
2017-Apr-24 04:29N 59°11' E 010°57'0 0.0
2017-Apr-24 03:59N 59°11' E 010°57'0 0.0
2017-Apr-24 03:29N 59°11' E 010°57'0 0.0
2017-Apr-24 02:59N 59°11' E 010°57'0 0.0
2017-Apr-24 02:28N 59°11' E 010°57'0 0.0
2017-Apr-24 01:58N 59°11' E 010°57'0 0.0
2017-Apr-24 01:28N 59°11' E 010°57'0 0.0
2017-Apr-24 00:58N 59°11' E 010°57'0 0.0
2017-Apr-24 00:28N 59°11' E 010°57'0 0.0
2017-Apr-23 23:58N 59°11' E 010°57'0 0.0
2017-Apr-23 23:28N 59°11' E 010°57'0 0.0
2017-Apr-23 22:58N 59°11' E 010°57'1 1.9
2017-Apr-23 22:30N 59°11' E 010°57'611.5
2017-Apr-23 22:00N 59°05' E 010°58'4 8.8
2017-Apr-23 21:30N 59°01' E 010°54'611.3
2017-Apr-23 21:00N 59°06' E 010°48'612.6
2017-Apr-23 20:30N 59°12' E 010°44'612.4
2017-Apr-23 20:00N 59°18' E 010°41'612.8
2017-Apr-23 19:30N 59°24' E 010°36'612.0
2017-Apr-23 19:00N 59°30' E 010°34'3 6.8
2017-Apr-23 18:30N 59°28' E 010°40'2 4.6
2017-Apr-23 18:00N 59°26' E 010°39'0 0.0
2017-Apr-23 17:30N 59°26' E 010°39'0 0.0
2017-Apr-23 17:00N 59°26' E 010°39'0 0.0
2017-Apr-23 16:30N 59°26' E 010°39'0 0.0
2017-Apr-23 16:00N 59°26' E 010°39'0 0.0
2017-Apr-23 15:30N 59°26' E 010°39'0 0.0
2017-Apr-23 15:00N 59°26' E 010°39'0 0.0
2017-Apr-23 14:00N 59°26' E 010°39'0 0.0
2017-Apr-23 13:30N 59°26' E 010°39'0 0.0
2017-Apr-23 12:57N 59°26' E 010°39'0 0.0
2017-Apr-23 12:30N 59°26' E 010°39'0 0.0
2017-Apr-23 12:00N 59°26' E 010°39'0 0.0
2017-Apr-23 11:30N 59°26' E 010°39'0 0.0
2017-Apr-23 11:00N 59°26' E 010°39'0 0.8
2017-Apr-23 10:30N 59°26' E 010°39'5 9.3
2017-Apr-23 10:00N 59°31' E 010°38'510.1
2017-Apr-23 09:30N 59°26' E 010°34'510.3
2017-Apr-23 09:00N 59°21' E 010°36'510.8
2017-Apr-23 08:30N 59°16' E 010°37'510.3
2017-Apr-23 08:00N 59°11' E 010°39'510.3
2017-Apr-23 07:30N 59°06' E 010°34'5 9.7
2017-Apr-23 07:00N 59°01' E 010°33'510.5
2017-Apr-23 06:30N 58°57' E 010°26'510.2
2017-Apr-23 06:00N 58°54' E 010°18'5 9.6
2017-Apr-23 05:30N 58°52' E 010°11'5 9.8
2017-Apr-23 05:00N 58°48' E 010°03'5 9.7
2017-Apr-23 04:30N 58°46' E 009°56'5 9.7
2017-Apr-23 04:00N 58°43' E 009°49'510.1
2017-Apr-23 03:30N 58°39' E 009°41'510.1
2017-Apr-23 03:00N 58°36' E 009°33'510.1
2017-Apr-23 02:30N 58°33' E 009°26'5 9.8
2017-Apr-23 02:00N 58°30' E 009°19'5 9.6
2017-Apr-23 01:30N 58°27' E 009°12'5 9.4
2017-Apr-23 01:00N 58°24' E 009°04'5 9.6
2017-Apr-23 00:30N 58°21' E 008°57'5 9.6
2017-Apr-23 00:00N 58°18' E 008°50'5 9.7
2017-Apr-22 23:30N 58°15' E 008°43'5 9.7
2017-Apr-22 23:00N 58°12' E 008°35'5 9.7
2017-Apr-22 22:30N 58°09' E 008°28'5 9.8
2017-Apr-22 22:00N 58°06' E 008°21'5 9.7
2017-Apr-22 21:30N 58°03' E 008°14'611.1
2017-Apr-22 21:00N 58°01' E 008°04'510.0
2017-Apr-22 20:30N 57°60' E 007°55'510.2
2017-Apr-22 20:00N 57°58' E 007°46'5 9.9
2017-Apr-22 19:30N 57°56' E 007°37'5 9.9
2017-Apr-22 19:00N 57°56' E 007°28'510.5
2017-Apr-22 18:29N 57°56' E 007°18'510.7
2017-Apr-22 18:00N 57°57' E 007°08'510.8
2017-Apr-22 17:30N 57°58' E 006°58'510.7
2017-Apr-22 17:00N 57°60' E 006°49'510.5
2017-Apr-22 16:30N 58°02' E 006°39'510.7
2017-Apr-22 16:00N 58°05' E 006°31'611.1
2017-Apr-22 15:30N 58°09' E 006°24'510.7
2017-Apr-22 15:00N 58°13' E 006°16'510.6
2017-Apr-22 14:30N 58°16' E 006°08'1110.9
2017-Apr-22 13:30N 58°23' E 005°53'510.9
2017-Apr-22 13:00N 58°27' E 005°45'510.7
2017-Apr-22 12:30N 58°31' E 005°38'611.2
2017-Apr-22 12:00N 58°36' E 005°33'612.7
2017-Apr-22 11:30N 58°42' E 005°29'612.1
2017-Apr-22 11:01N 58°47' E 005°24'612.3
2017-Apr-22 10:31N 58°53' E 005°22'612.2
2017-Apr-22 10:00N 58°59' E 005°20'612.0
2017-Apr-22 09:30N 59°05' E 005°19'612.2
2017-Apr-22 09:01N 59°11' E 005°20'612.5
2017-Apr-22 08:30N 59°18' E 005°20'611.5
2017-Apr-22 08:00N 59°23' E 005°17'611.3
2017-Apr-22 07:30N 59°28' E 005°13'612.4
2017-Apr-22 07:00N 59°35' E 005°15'612.7
2017-Apr-22 06:30N 59°40' E 005°22'612.4
2017-Apr-22 06:00N 59°45' E 005°29'0 0.7
2017-Apr-22 05:30N 59°45' E 005°29'0 0.0
2017-Apr-22 05:00N 59°45' E 005°29'0 0.0
2017-Apr-22 04:30N 59°45' E 005°29'0 0.0
2017-Apr-22 04:00N 59°45' E 005°29'0 0.0
2017-Apr-22 03:30N 59°45' E 005°29'0 0.0
2017-Apr-22 03:00N 59°45' E 005°29'0 0.0
2017-Apr-22 02:30N 59°45' E 005°29'0 0.0
2017-Apr-22 02:00N 59°45' E 005°29'0 0.0
2017-Apr-22 01:30N 59°45' E 005°29'0 0.0
2017-Apr-22 01:00N 59°45' E 005°29'0 0.0
2017-Apr-22 00:30N 59°45' E 005°29'0 0.0
2017-Apr-21 23:57N 59°45' E 005°29'0 0.0
2017-Apr-21 23:30N 59°45' E 005°29'0 0.0
2017-Apr-21 23:00N 59°45' E 005°29'0 0.0
2017-Apr-21 22:30N 59°45' E 005°29'0 0.0
2017-Apr-21 22:00N 59°45' E 005°29'0 0.0
2017-Apr-21 21:30N 59°45' E 005°29'0 0.0
2017-Apr-21 21:00N 59°45' E 005°29'0 0.0
2017-Apr-21 20:30N 59°45' E 005°29'0 0.0
2017-Apr-21 20:00N 59°45' E 005°29'0 0.0
2017-Apr-21 19:30N 59°45' E 005°29'0 0.0
2017-Apr-21 19:00N 59°45' E 005°29'0 0.0
2017-Apr-21 18:30N 59°45' E 005°29'0 0.0
2017-Apr-21 18:00N 59°45' E 005°29'0 0.0
2017-Apr-21 17:30N 59°45' E 005°29'0 0.0
2017-Apr-21 17:00N 59°45' E 005°29'0 0.0
2017-Apr-21 16:30N 59°45' E 005°29'0 0.0
2017-Apr-21 15:59N 59°45' E 005°29'0 0.0
2017-Apr-21 15:29N 59°45' E 005°29'0 0.0
2017-Apr-21 15:00N 59°45' E 005°29'0 0.0
2017-Apr-21 14:29N 59°45' E 005°29'0 0.0
2017-Apr-21 13:29N 59°45' E 005°29'0 0.0
2017-Apr-21 12:59N 59°45' E 005°29'0 0.0
2017-Apr-21 12:29N 59°45' E 005°29'0 0.0
2017-Apr-21 11:59N 59°45' E 005°29'0 0.0
2017-Apr-21 11:29N 59°45' E 005°29'0 0.0
2017-Apr-21 10:59N 59°45' E 005°29'0 0.0
2017-Apr-21 10:30N 59°45' E 005°29'1 2.2
2017-Apr-21 10:00N 59°44' E 005°28'510.9
2017-Apr-21 09:30N 59°40' E 005°22'612.2
2017-Apr-21 09:00N 59°35' E 005°15'611.2
2017-Apr-21 08:30N 59°29' E 005°13'510.5
2017-Apr-21 08:00N 59°24' E 005°16'510.5
2017-Apr-21 07:30N 59°19' E 005°20'611.4
2017-Apr-21 07:00N 59°14' E 005°21'3 5.0
2017-Apr-21 06:30N 59°11' E 005°21'2 4.5
2017-Apr-21 06:01N 59°09' E 005°22'2 4.3
2017-Apr-21 05:30N 59°07' E 005°22'2 4.9
2017-Apr-21 05:00N 59°04' E 005°21'3 5.2
2017-Apr-21 04:30N 59°02' E 005°20'2 4.6
2017-Apr-21 04:00N 58°60' E 005°21'3 5.1
2017-Apr-21 03:30N 58°57' E 005°21'4 7.9
2017-Apr-21 03:00N 58°53' E 005°22'4 8.1
2017-Apr-21 02:30N 58°49' E 005°23'510.5
2017-Apr-21 02:00N 58°44' E 005°25'510.3
2017-Apr-21 01:30N 58°39' E 005°29'511.0
2017-Apr-21 01:00N 58°34' E 005°34'510.4
2017-Apr-21 00:30N 58°30' E 005°39'510.2
2017-Apr-21 00:00N 58°27' E 005°46'5 9.9
2017-Apr-20 23:30N 58°23' E 005°53'510.2
2017-Apr-20 23:00N 58°20' E 006°01'510.1
2017-Apr-20 22:30N 58°16' E 006°08'510.1
2017-Apr-20 22:00N 58°13' E 006°15'510.0
2017-Apr-20 21:30N 58°10' E 006°22'5 9.5
2017-Apr-20 21:00N 58°06' E 006°28'5 9.3
2017-Apr-20 20:30N 58°03' E 006°35'4 9.1
2017-Apr-20 20:00N 58°01' E 006°42'5 9.0
2017-Apr-20 19:30N 57°59' E 006°50'5 9.5
2017-Apr-20 19:00N 57°58' E 006°59'5 9.4
2017-Apr-20 18:30N 57°56' E 007°08'5 9.5
2017-Apr-20 18:00N 57°56' E 007°16'4 9.2
2017-Apr-20 17:30N 57°56' E 007°25'5 9.6
2017-Apr-20 17:00N 57°56' E 007°34'5 9.4
2017-Apr-20 16:30N 57°58' E 007°43'510.2
2017-Apr-20 16:00N 57°60' E 007°51'510.3
2017-Apr-20 15:30N 58°02' E 008°00'4 8.1
2017-Apr-20 15:00N 58°06' E 008°03'3 6.1
2017-Apr-20 14:30N 58°08' E 007°59'0 0.0
2017-Apr-20 13:30N 58°08' E 007°59'0 0.0
2017-Apr-20 13:00N 58°08' E 007°59'0 0.0
2017-Apr-20 12:30N 58°08' E 007°59'0 0.0
2017-Apr-20 12:00N 58°08' E 007°59'0 0.0
2017-Apr-20 11:30N 58°08' E 007°59'0 0.0
2017-Apr-20 11:00N 58°08' E 007°59'0 0.0
2017-Apr-20 10:30N 58°08' E 007°59'0 0.0
2017-Apr-20 10:00N 58°08' E 007°59'0 0.0
2017-Apr-20 09:30N 58°08' E 007°59'0 0.0
2017-Apr-20 09:00N 58°08' E 007°59'0 0.0
2017-Apr-20 08:30N 58°08' E 007°59'0 0.0
2017-Apr-20 08:00N 58°08' E 007°59'0 0.0
2017-Apr-20 07:30N 58°08' E 007°59'0 0.0
2017-Apr-20 07:00N 58°08' E 007°59'0 0.0
2017-Apr-20 06:30N 58°08' E 007°59'0 0.0
2017-Apr-20 06:00N 58°08' E 007°59'0 0.0
2017-Apr-20 05:30N 58°08' E 007°59'0 0.0
2017-Apr-20 05:00N 58°08' E 007°59'0 0.0
2017-Apr-20 04:30N 58°08' E 007°59'0 0.0
2017-Apr-20 04:00N 58°08' E 007°59'0 0.0
2017-Apr-20 03:29N 58°08' E 007°59'0 0.0
2017-Apr-20 02:59N 58°08' E 007°59'0 0.0
2017-Apr-20 02:29N 58°08' E 007°59'0 0.0
2017-Apr-20 01:59N 58°08' E 007°59'0 0.0
2017-Apr-20 01:29N 58°08' E 007°59'0 0.0
2017-Apr-20 00:59N 58°08' E 007°59'0 0.0
2017-Apr-20 00:29N 58°08' E 007°59'0 0.0
2017-Apr-19 23:59N 58°08' E 007°59'0 0.0
2017-Apr-19 23:29N 58°08' E 007°59'0 0.0
2017-Apr-19 22:59N 58°08' E 007°59'0 0.0
2017-Apr-19 22:29N 58°08' E 007°59'0 0.0
2017-Apr-19 21:59N 58°08' E 007°59'0 0.0
2017-Apr-19 21:29N 58°08' E 007°59'0 0.0
2017-Apr-19 20:59N 58°08' E 007°59'0 0.0
2017-Apr-19 20:29N 58°08' E 007°59'0 0.0
2017-Apr-19 19:59N 58°08' E 007°59'0 0.0
2017-Apr-19 19:29N 58°08' E 007°59'0 0.0
2017-Apr-19 18:59N 58°08' E 007°59'0 0.0
2017-Apr-19 18:29N 58°08' E 007°59'0 0.0
2017-Apr-19 17:59N 58°08' E 007°59'0 0.0
2017-Apr-19 17:29N 58°08' E 007°59'0 0.0
2017-Apr-19 16:59N 58°08' E 007°59'0 0.0
2017-Apr-19 16:29N 58°08' E 007°59'0 0.0
2017-Apr-19 15:59N 58°08' E 007°59'0 0.2
2017-Apr-19 15:30N 58°07' E 007°59'1 1.2
2017-Apr-19 14:58N 58°08' E 007°59'0 0.1
2017-Apr-19 14:28N 58°08' E 007°59'0 0.0
2017-Apr-19 13:28N 58°08' E 007°59'0 0.0
2017-Apr-19 12:58N 58°08' E 007°59'0 0.0
2017-Apr-19 12:28N 58°08' E 007°59'0 0.0
2017-Apr-19 11:58N 58°08' E 007°59'0 0.0
2017-Apr-19 11:28N 58°08' E 007°59'0 0.2
2017-Apr-19 10:58N 58°08' E 007°59'0 0.1
2017-Apr-19 10:28N 58°08' E 007°59'0 0.1
2017-Apr-19 09:58N 58°08' E 007°59'0 0.1
2017-Apr-19 09:28N 58°08' E 007°59'0 0.1
2017-Apr-19 08:58N 58°08' E 007°59'0 0.0
2017-Apr-19 08:28N 58°08' E 007°59'0 0.1
2017-Apr-19 07:58N 58°08' E 007°59'0 0.1
2017-Apr-19 07:28N 58°08' E 007°59'0 0.0
2017-Apr-19 06:58N 58°08' E 007°59'0 0.0
2017-Apr-19 06:28N 58°08' E 007°59'0 0.0
2017-Apr-19 05:58N 58°08' E 007°59'0 0.0
2017-Apr-19 05:28N 58°08' E 007°59'0 0.0
2017-Apr-19 04:58N 58°08' E 007°59'0 0.0
2017-Apr-19 04:28N 58°08' E 007°59'0 0.0
2017-Apr-19 03:58N 58°08' E 007°59'0 0.0
2017-Apr-19 03:28N 58°08' E 007°59'0 0.0
2017-Apr-19 02:58N 58°08' E 007°59'0 0.0
2017-Apr-19 02:28N 58°08' E 007°59'0 0.0
2017-Apr-19 01:58N 58°08' E 007°59'0 0.0
2017-Apr-19 01:28N 58°08' E 007°59'0 0.0
2017-Apr-19 00:58N 58°08' E 007°59'0 0.0
2017-Apr-19 00:28N 58°08' E 007°59'0 0.0
2017-Apr-18 23:58N 58°08' E 007°59'0 0.0
2017-Apr-18 23:28N 58°08' E 007°59'0 0.0
2017-Apr-18 22:58N 58°08' E 007°59'0 0.0
2017-Apr-18 22:28N 58°08' E 007°59'0 0.0
2017-Apr-18 21:58N 58°08' E 007°59'0 0.0
2017-Apr-18 21:28N 58°08' E 007°59'0 0.0
2017-Apr-18 20:58N 58°08' E 007°59'0 0.0
2017-Apr-18 20:28N 58°08' E 007°59'0 0.0
2017-Apr-18 19:58N 58°08' E 007°59'0 0.0
2017-Apr-18 19:28N 58°08' E 007°59'0 0.0
2017-Apr-18 18:58N 58°08' E 007°59'0 0.0
2017-Apr-18 18:28N 58°08' E 007°59'0 0.0
2017-Apr-18 17:58N 58°08' E 007°59'0 0.0
2017-Apr-18 17:28N 58°08' E 007°59'0 0.0
2017-Apr-18 16:58N 58°08' E 007°59'0 0.1
2017-Apr-18 16:28N 58°08' E 007°59'0 0.0
2017-Apr-18 15:58N 58°08' E 007°59'0 0.0
2017-Apr-18 15:28N 58°08' E 007°59'0 0.1
2017-Apr-18 14:58N 58°08' E 007°59'0 0.1
2017-Apr-18 13:58N 58°08' E 007°59'0 0.0
2017-Apr-18 13:28N 58°08' E 007°59'0 0.0
2017-Apr-18 12:58N 58°08' E 007°59'0 0.0
2017-Apr-18 12:28N 58°08' E 007°59'0 0.0
2017-Apr-18 11:58N 58°08' E 007°59'0 0.0
2017-Apr-18 11:28N 58°08' E 007°59'0 0.0
2017-Apr-18 10:58N 58°08' E 007°59'0 0.1
2017-Apr-18 10:28N 58°08' E 007°59'0 0.0
2017-Apr-18 09:58N 58°08' E 007°59'0 0.0
2017-Apr-18 09:28N 58°08' E 007°59'0 0.0
2017-Apr-18 09:01N 58°08' E 007°59'0 0.0
2017-Apr-18 08:31N 58°08' E 007°59'0 0.0
2017-Apr-18 08:00N 58°08' E 007°59'0 0.0
2017-Apr-18 07:30N 58°08' E 007°59'0 0.0
2017-Apr-18 07:00N 58°08' E 007°59'0 0.0
2017-Apr-18 06:30N 58°08' E 007°59'0 0.1
2017-Apr-18 06:00N 58°08' E 007°59'0 0.0
2017-Apr-18 05:24N 58°08' E 007°59'0 0.0
2017-Apr-18 05:00N 58°08' E 007°59'0 0.0
2017-Apr-18 04:30N 58°08' E 007°59'0 0.0
2017-Apr-18 04:00N 58°08' E 007°59'0 0.0
2017-Apr-18 03:30N 58°08' E 007°59'0 0.0
2017-Apr-18 03:00N 58°08' E 007°59'0 0.0
2017-Apr-18 02:24N 58°08' E 007°59'0 0.0
2017-Apr-18 02:00N 58°08' E 007°59'0 0.0
2017-Apr-18 01:30N 58°08' E 007°59'0 0.0
2017-Apr-18 01:00N 58°08' E 007°59'0 0.1
2017-Apr-18 00:30N 58°08' E 007°59'  
Track history (hours):
 
Tides and Currents Weather Stations Pressure Air Temp Water Temp Dewpoint Dewpoint Depression Visibility Wind Speed Wind Dir Waves Ship Positions

Kristin D

Last reported at 2017-Apr-28 00:23 UTC. Time now 2017-Apr-28 00:37 UTC.
Position N 56°39' E 016°22'.

Length 90 m; draft 4 m.

Type: Cargo ship. MMSI: 311003700.

Date/timePositionNaut miles runAvg speedWind from/ knotsBaromVisibWave heightAir tempDewpointWater temp
2017-Apr-28 00:23N 56°39' E 016°22'0 0.0
2017-Apr-27 23:59N 56°39' E 016°22'0 0.0
2017-Apr-27 23:26N 56°39' E 016°22'0 0.0
2017-Apr-27 22:56N 56°39' E 016°22'0 0.0
2017-Apr-27 22:29N 56°39' E 016°22'0 0.0
2017-Apr-27 21:59N 56°39' E 016°22'0 0.0
2017-Apr-27 21:29N 56°39' E 016°22'0 0.0
2017-Apr-27 20:56N 56°39' E 016°22'0 0.0
2017-Apr-27 19:41N 56°39' E 016°22'0 0.0
2017-Apr-27 19:29N 56°39' E 016°22'0 0.0
2017-Apr-27 18:56N 56°39' E 016°22'0 0.0
2017-Apr-27 13:43N 56°39' E 016°22'0 0.0
2017-Apr-27 13:13N 56°39' E 016°22'0 0.0
2017-Apr-27 12:55N 56°39' E 016°22'0 0.0
2017-Apr-27 12:28N 56°39' E 016°22'0 0.0
2017-Apr-27 11:58N 56°39' E 016°22'0 0.0
2017-Apr-27 11:25N 56°39' E 016°22'0 0.0
2017-Apr-27 10:58N 56°39' E 016°22'0 0.0
2017-Apr-27 10:19N 56°39' E 016°22'72 2.7
2017-Apr-26 07:09N 55°36' E 015°18'710.2
2017-Apr-26 06:29N 55°33' E 015°08'610.1
2017-Apr-26 05:53N 55°30' E 014°59'410.0
2017-Apr-26 05:27N 55°27' E 014°52'510.6
2017-Apr-26 04:58N 55°25' E 014°44'510.4
2017-Apr-26 04:29N 55°22' E 014°37'510.6
2017-Apr-26 04:00N 55°18' E 014°31'5 9.8
2017-Apr-26 03:30N 55°14' E 014°25'5 9.5
2017-Apr-26 02:59N 55°11' E 014°19'5 9.8
2017-Apr-26 02:30N 55°11' E 014°11'5 9.9
2017-Apr-26 02:00N 55°11' E 014°02'510.0
2017-Apr-26 01:30N 55°11' E 013°53'5 9.9
2017-Apr-26 01:00N 55°12' E 013°45'5 9.9
2017-Apr-26 00:30N 55°12' E 013°36'710.0
2017-Apr-25 23:50N 55°13' E 013°24'410.2
2017-Apr-25 23:30N 55°13' E 013°18'510.0
2017-Apr-25 23:00N 55°14' E 013°10'510.2
2017-Apr-25 22:30N 55°14' E 013°01'510.4
2017-Apr-25 22:00N 55°15' E 012°52'510.4
2017-Apr-25 21:30N 55°17' E 012°43'4 9.0
2017-Apr-25 21:00N 55°20' E 012°38'510.6
2017-Apr-25 20:30N 55°25' E 012°40'510.5
2017-Apr-25 20:00N 55°31' E 012°42'510.6
2017-Apr-25 19:30N 55°36' E 012°42'611.6
2017-Apr-25 19:00N 55°42' E 012°41'611.5
2017-Apr-25 18:30N 55°47' E 012°41'611.4
2017-Apr-25 18:00N 55°53' E 012°39'611.5
2017-Apr-25 17:30N 55°59' E 012°38'510.3
2017-Apr-25 17:00N 56°04' E 012°37'611.6
2017-Apr-25 16:30N 56°08' E 012°30'511.0
2017-Apr-25 16:00N 56°13' E 012°26'5210.7
2017-Apr-25 11:12N 56°60' E 011°46'210.7
2017-Apr-25 10:59N 57°02' E 011°44'510.2
2017-Apr-25 10:30N 57°07' E 011°41'510.5
2017-Apr-25 10:00N 57°11' E 011°38'510.8
2017-Apr-25 09:30N 57°17' E 011°35'510.7
2017-Apr-25 09:00N 57°22' E 011°32'510.6
2017-Apr-25 08:30N 57°27' E 011°29'510.6
2017-Apr-25 07:59N 57°32' E 011°26'510.5
2017-Apr-25 07:28N 57°37' E 011°24'510.8
2017-Apr-25 07:00N 57°42' E 011°21'611.0
2017-Apr-25 06:30N 57°47' E 011°18'611.5
2017-Apr-25 05:58N 57°53' E 011°15'510.9
2017-Apr-25 05:30N 57°58' E 011°12'510.3
2017-Apr-25 05:00N 58°03' E 011°10'5 9.7
2017-Apr-25 04:27N 58°08' E 011°07'5 9.6
2017-Apr-25 03:58N 58°13' E 011°04'5 9.6
2017-Apr-25 03:30N 58°17' E 011°02'5 9.4
2017-Apr-25 03:00N 58°21' E 010°59'510.0
2017-Apr-25 02:30N 58°26' E 010°56'510.2
2017-Apr-25 02:00N 58°31' E 010°54'510.2
2017-Apr-25 01:30N 58°36' E 010°51'5 9.4
2017-Apr-25 01:00N 58°41' E 010°49'5 9.3
2017-Apr-25 00:30N 58°45' E 010°47'5 9.5
2017-Apr-25 00:00N 58°50' E 010°47'5 9.8
2017-Apr-24 23:30N 58°55' E 010°46'510.2
2017-Apr-24 23:00N 58°60' E 010°45'4 7.9
2017-Apr-24 22:30N 59°01' E 010°52'3 6.6
2017-Apr-24 22:00N 59°02' E 010°58'611.7
2017-Apr-24 21:30N 59°08' E 010°58'3 6.6
2017-Apr-24 21:00N 59°11' E 010°57'0 0.0
2017-Apr-24 20:29N 59°11' E 010°57'0 0.0
2017-Apr-24 19:59N 59°11' E 010°57'0 0.0
2017-Apr-24 19:29N 59°11' E 010°57'0 0.0
2017-Apr-24 18:59N 59°11' E 010°57'0 0.0
2017-Apr-24 18:29N 59°11' E 010°57'0 0.0
2017-Apr-24 17:59N 59°11' E 010°57'0 0.0
2017-Apr-24 17:29N 59°11' E 010°57'0 0.0
2017-Apr-24 16:59N 59°11' E 010°57'0 0.0
2017-Apr-24 16:29N 59°11' E 010°57'0 0.0
2017-Apr-24 15:59N 59°11' E 010°57'0 0.0
2017-Apr-24 15:29N 59°11' E 010°57'0 0.0
2017-Apr-24 14:59N 59°11' E 010°57'0 0.0
2017-Apr-24 14:29N 59°11' E 010°57'0 0.0
2017-Apr-24 13:29N 59°11' E 010°57'0 0.0
2017-Apr-24 12:59N 59°11' E 010°57'0 0.0
2017-Apr-24 12:29N 59°11' E 010°57'0 0.0
2017-Apr-24 11:59N 59°11' E 010°57'0 0.0
2017-Apr-24 11:29N 59°11' E 010°57'0 0.0
2017-Apr-24 10:59N 59°11' E 010°57'0 0.0
2017-Apr-24 10:29N 59°11' E 010°57'0 0.0
2017-Apr-24 09:59N 59°11' E 010°57'0 0.0
2017-Apr-24 09:29N 59°11' E 010°57'0 0.0
2017-Apr-24 08:59N 59°11' E 010°57'0 0.0
2017-Apr-24 08:29N 59°11' E 010°57'0 0.0
2017-Apr-24 07:59N 59°11' E 010°57'0 0.0
2017-Apr-24 07:29N 59°11' E 010°57'0 0.0
2017-Apr-24 06:59N 59°11' E 010°57'0 0.0
2017-Apr-24 06:29N 59°11' E 010°57'0 0.0
2017-Apr-24 05:59N 59°11' E 010°57'0 0.0
2017-Apr-24 05:29N 59°11' E 010°57'0 0.0
2017-Apr-24 04:59N 59°11' E 010°57'0 0.0
2017-Apr-24 04:29N 59°11' E 010°57'0 0.0
2017-Apr-24 03:59N 59°11' E 010°57'0 0.0
2017-Apr-24 03:29N 59°11' E 010°57'0 0.0
2017-Apr-24 02:59N 59°11' E 010°57'0 0.0
2017-Apr-24 02:28N 59°11' E 010°57'0 0.0
2017-Apr-24 01:58N 59°11' E 010°57'0 0.0
2017-Apr-24 01:28N 59°11' E 010°57'0 0.0
2017-Apr-24 00:58N 59°11' E 010°57'0 0.0
2017-Apr-24 00:28N 59°11' E 010°57'0 0.0
2017-Apr-23 23:58N 59°11' E 010°57'0 0.0
2017-Apr-23 23:28N 59°11' E 010°57'0 0.0
2017-Apr-23 22:58N 59°11' E 010°57'1 1.9
2017-Apr-23 22:30N 59°11' E 010°57'611.5
2017-Apr-23 22:00N 59°05' E 010°58'4 8.8
2017-Apr-23 21:30N 59°01' E 010°54'611.3
2017-Apr-23 21:00N 59°06' E 010°48'612.6
2017-Apr-23 20:30N 59°12' E 010°44'612.4
2017-Apr-23 20:00N 59°18' E 010°41'612.8
2017-Apr-23 19:30N 59°24' E 010°36'612.0
2017-Apr-23 19:00N 59°30' E 010°34'3 6.8
2017-Apr-23 18:30N 59°28' E 010°40'2 4.6
2017-Apr-23 18:00N 59°26' E 010°39'0 0.0
2017-Apr-23 17:30N 59°26' E 010°39'0 0.0
2017-Apr-23 17:00N 59°26' E 010°39'0 0.0
2017-Apr-23 16:30N 59°26' E 010°39'0 0.0
2017-Apr-23 16:00N 59°26' E 010°39'0 0.0
2017-Apr-23 15:30N 59°26' E 010°39'0 0.0
2017-Apr-23 15:00N 59°26' E 010°39'0 0.0
2017-Apr-23 14:00N 59°26' E 010°39'0 0.0
2017-Apr-23 13:30N 59°26' E 010°39'0 0.0
2017-Apr-23 12:57N 59°26' E 010°39'0 0.0
2017-Apr-23 12:30N 59°26' E 010°39'0 0.0
2017-Apr-23 12:00N 59°26' E 010°39'0 0.0
2017-Apr-23 11:30N 59°26' E 010°39'0 0.0
2017-Apr-23 11:00N 59°26' E 010°39'0 0.8
2017-Apr-23 10:30N 59°26' E 010°39'5 9.3
2017-Apr-23 10:00N 59°31' E 010°38'510.1
2017-Apr-23 09:30N 59°26' E 010°34'510.3
2017-Apr-23 09:00N 59°21' E 010°36'510.8
2017-Apr-23 08:30N 59°16' E 010°37'510.3
2017-Apr-23 08:00N 59°11' E 010°39'510.3
2017-Apr-23 07:30N 59°06' E 010°34'5 9.7
2017-Apr-23 07:00N 59°01' E 010°33'510.5
2017-Apr-23 06:30N 58°57' E 010°26'510.2
2017-Apr-23 06:00N 58°54' E 010°18'5 9.6
2017-Apr-23 05:30N 58°52' E 010°11'5 9.8
2017-Apr-23 05:00N 58°48' E 010°03'5 9.7
2017-Apr-23 04:30N 58°46' E 009°56'5 9.7
2017-Apr-23 04:00N 58°43' E 009°49'510.1
2017-Apr-23 03:30N 58°39' E 009°41'510.1
2017-Apr-23 03:00N 58°36' E 009°33'510.1
2017-Apr-23 02:30N 58°33' E 009°26'5 9.8
2017-Apr-23 02:00N 58°30' E 009°19'5 9.6
2017-Apr-23 01:30N 58°27' E 009°12'5 9.4
2017-Apr-23 01:00N 58°24' E 009°04'5 9.6
2017-Apr-23 00:30N 58°21' E 008°57'5 9.6
2017-Apr-23 00:00N 58°18' E 008°50'5 9.7
2017-Apr-22 23:30N 58°15' E 008°43'5 9.7
2017-Apr-22 23:00N 58°12' E 008°35'5 9.7
2017-Apr-22 22:30N 58°09' E 008°28'5 9.8
2017-Apr-22 22:00N 58°06' E 008°21'5 9.7
2017-Apr-22 21:30N 58°03' E 008°14'611.1
2017-Apr-22 21:00N 58°01' E 008°04'510.0
2017-Apr-22 20:30N 57°60' E 007°55'510.2
2017-Apr-22 20:00N 57°58' E 007°46'5 9.9
2017-Apr-22 19:30N 57°56' E 007°37'5 9.9
2017-Apr-22 19:00N 57°56' E 007°28'510.5
2017-Apr-22 18:29N 57°56' E 007°18'510.7
2017-Apr-22 18:00N 57°57' E 007°08'510.8
2017-Apr-22 17:30N 57°58' E 006°58'510.7
2017-Apr-22 17:00N 57°60' E 006°49'510.5
2017-Apr-22 16:30N 58°02' E 006°39'510.7
2017-Apr-22 16:00N 58°05' E 006°31'611.1
2017-Apr-22 15:30N 58°09' E 006°24'510.7
2017-Apr-22 15:00N 58°13' E 006°16'510.6
2017-Apr-22 14:30N 58°16' E 006°08'1110.9
2017-Apr-22 13:30N 58°23' E 005°53'510.9
2017-Apr-22 13:00N 58°27' E 005°45'510.7
2017-Apr-22 12:30N 58°31' E 005°38'611.2
2017-Apr-22 12:00N 58°36' E 005°33'612.7
2017-Apr-22 11:30N 58°42' E 005°29'612.1
2017-Apr-22 11:01N 58°47' E 005°24'612.3
2017-Apr-22 10:31N 58°53' E 005°22'612.2
2017-Apr-22 10:00N 58°59' E 005°20'612.0
2017-Apr-22 09:30N 59°05' E 005°19'612.2
2017-Apr-22 09:01N 59°11' E 005°20'612.5
2017-Apr-22 08:30N 59°18' E 005°20'611.5
2017-Apr-22 08:00N 59°23' E 005°17'611.3
2017-Apr-22 07:30N 59°28' E 005°13'612.4
2017-Apr-22 07:00N 59°35' E 005°15'612.7
2017-Apr-22 06:30N 59°40' E 005°22'612.4
2017-Apr-22 06:00N 59°45' E 005°29'0 0.7
2017-Apr-22 05:30N 59°45' E 005°29'0 0.0
2017-Apr-22 05:00N 59°45' E 005°29'0 0.0
2017-Apr-22 04:30N 59°45' E 005°29'0 0.0
2017-Apr-22 04:00N 59°45' E 005°29'0 0.0
2017-Apr-22 03:30N 59°45' E 005°29'0 0.0
2017-Apr-22 03:00N 59°45' E 005°29'0 0.0
2017-Apr-22 02:30N 59°45' E 005°29'0 0.0
2017-Apr-22 02:00N 59°45' E 005°29'0 0.0
2017-Apr-22 01:30N 59°45' E 005°29'0 0.0
2017-Apr-22 01:00N 59°45' E 005°29'0 0.0
2017-Apr-22 00:30N 59°45' E 005°29'0 0.0
2017-Apr-21 23:57N 59°45' E 005°29'0 0.0
2017-Apr-21 23:30N 59°45' E 005°29'0 0.0
2017-Apr-21 23:00N 59°45' E 005°29'0 0.0
2017-Apr-21 22:30N 59°45' E 005°29'0 0.0
2017-Apr-21 22:00N 59°45' E 005°29'0 0.0
2017-Apr-21 21:30N 59°45' E 005°29'0 0.0
2017-Apr-21 21:00N 59°45' E 005°29'0 0.0
2017-Apr-21 20:30N 59°45' E 005°29'0 0.0
2017-Apr-21 20:00N 59°45' E 005°29'0 0.0
2017-Apr-21 19:30N 59°45' E 005°29'0 0.0
2017-Apr-21 19:00N 59°45' E 005°29'0 0.0
2017-Apr-21 18:30N 59°45' E 005°29'0 0.0
2017-Apr-21 18:00N 59°45' E 005°29'0 0.0
2017-Apr-21 17:30N 59°45' E 005°29'0 0.0
2017-Apr-21 17:00N 59°45' E 005°29'0 0.0
2017-Apr-21 16:30N 59°45' E 005°29'0 0.0
2017-Apr-21 15:59N 59°45' E 005°29'0 0.0
2017-Apr-21 15:29N 59°45' E 005°29'0 0.0
2017-Apr-21 15:00N 59°45' E 005°29'0 0.0
2017-Apr-21 14:29N 59°45' E 005°29'0 0.0
2017-Apr-21 13:29N 59°45' E 005°29'0 0.0
2017-Apr-21 12:59N 59°45' E 005°29'0 0.0
2017-Apr-21 12:29N 59°45' E 005°29'0 0.0
2017-Apr-21 11:59N 59°45' E 005°29'0 0.0
2017-Apr-21 11:29N 59°45' E 005°29'0 0.0
2017-Apr-21 10:59N 59°45' E 005°29'0 0.0
2017-Apr-21 10:30N 59°45' E 005°29'1 2.2
2017-Apr-21 10:00N 59°44' E 005°28'510.9
2017-Apr-21 09:30N 59°40' E 005°22'612.2
2017-Apr-21 09:00N 59°35' E 005°15'611.2
2017-Apr-21 08:30N 59°29' E 005°13'510.5
2017-Apr-21 08:00N 59°24' E 005°16'510.5
2017-Apr-21 07:30N 59°19' E 005°20'611.4
2017-Apr-21 07:00N 59°14' E 005°21'3 5.0
2017-Apr-21 06:30N 59°11' E 005°21'2 4.5
2017-Apr-21 06:01N 59°09' E 005°22'2 4.3
2017-Apr-21 05:30N 59°07' E 005°22'2 4.9
2017-Apr-21 05:00N 59°04' E 005°21'3 5.2
2017-Apr-21 04:30N 59°02' E 005°20'2 4.6
2017-Apr-21 04:00N 58°60' E 005°21'3 5.1
2017-Apr-21 03:30N 58°57' E 005°21'4 7.9
2017-Apr-21 03:00N 58°53' E 005°22'4 8.1
2017-Apr-21 02:30N 58°49' E 005°23'510.5
2017-Apr-21 02:00N 58°44' E 005°25'510.3
2017-Apr-21 01:30N 58°39' E 005°29'511.0
2017-Apr-21 01:00N 58°34' E 005°34'510.4
2017-Apr-21 00:30N 58°30' E 005°39'510.2
2017-Apr-21 00:00N 58°27' E 005°46'5 9.9
2017-Apr-20 23:30N 58°23' E 005°53'510.2
2017-Apr-20 23:00N 58°20' E 006°01'510.1
2017-Apr-20 22:30N 58°16' E 006°08'510.1
2017-Apr-20 22:00N 58°13' E 006°15'510.0
2017-Apr-20 21:30N 58°10' E 006°22'5 9.5
2017-Apr-20 21:00N 58°06' E 006°28'5 9.3
2017-Apr-20 20:30N 58°03' E 006°35'4 9.1
2017-Apr-20 20:00N 58°01' E 006°42'5 9.0
2017-Apr-20 19:30N 57°59' E 006°50'5 9.5
2017-Apr-20 19:00N 57°58' E 006°59'5 9.4
2017-Apr-20 18:30N 57°56' E 007°08'5 9.5
2017-Apr-20 18:00N 57°56' E 007°16'4 9.2
2017-Apr-20 17:30N 57°56' E 007°25'5 9.6
2017-Apr-20 17:00N 57°56' E 007°34'5 9.4
2017-Apr-20 16:30N 57°58' E 007°43'510.2
2017-Apr-20 16:00N 57°60' E 007°51'510.3
2017-Apr-20 15:30N 58°02' E 008°00'4 8.1
2017-Apr-20 15:00N 58°06' E 008°03'3 6.1
2017-Apr-20 14:30N 58°08' E 007°59'0 0.0
2017-Apr-20 13:30N 58°08' E 007°59'0 0.0
2017-Apr-20 13:00N 58°08' E 007°59'0 0.0
2017-Apr-20 12:30N 58°08' E 007°59'0 0.0
2017-Apr-20 12:00N 58°08' E 007°59'0 0.0
2017-Apr-20 11:30N 58°08' E 007°59'0 0.0
2017-Apr-20 11:00N 58°08' E 007°59'0 0.0
2017-Apr-20 10:30N 58°08' E 007°59'0 0.0
2017-Apr-20 10:00N 58°08' E 007°59'0 0.0
2017-Apr-20 09:30N 58°08' E 007°59'0 0.0
2017-Apr-20 09:00N 58°08' E 007°59'0 0.0
2017-Apr-20 08:30N 58°08' E 007°59'0 0.0
2017-Apr-20 08:00N 58°08' E 007°59'0 0.0
2017-Apr-20 07:30N 58°08' E 007°59'0 0.0
2017-Apr-20 07:00N 58°08' E 007°59'0 0.0
2017-Apr-20 06:30N 58°08' E 007°59'0 0.0
2017-Apr-20 06:00N 58°08' E 007°59'0 0.0
2017-Apr-20 05:30N 58°08' E 007°59'0 0.0
2017-Apr-20 05:00N 58°08' E 007°59'0 0.0
2017-Apr-20 04:30N 58°08' E 007°59'0 0.0
2017-Apr-20 04:00N 58°08' E 007°59'0 0.0
2017-Apr-20 03:29N 58°08' E 007°59'0 0.0
2017-Apr-20 02:59N 58°08' E 007°59'0 0.0
2017-Apr-20 02:29N 58°08' E 007°59'0 0.0
2017-Apr-20 01:59N 58°08' E 007°59'0 0.0
2017-Apr-20 01:29N 58°08' E 007°59'0 0.0
2017-Apr-20 00:59N 58°08' E 007°59'0 0.0
2017-Apr-20 00:29N 58°08' E 007°59'0 0.0
2017-Apr-19 23:59N 58°08' E 007°59'0 0.0
2017-Apr-19 23:29N 58°08' E 007°59'0 0.0
2017-Apr-19 22:59N 58°08' E 007°59'0 0.0
2017-Apr-19 22:29N 58°08' E 007°59'0 0.0
2017-Apr-19 21:59N 58°08' E 007°59'0 0.0
2017-Apr-19 21:29N 58°08' E 007°59'0 0.0
2017-Apr-19 20:59N 58°08' E 007°59'0 0.0
2017-Apr-19 20:29N 58°08' E 007°59'0 0.0
2017-Apr-19 19:59N 58°08' E 007°59'0 0.0
2017-Apr-19 19:29N 58°08' E 007°59'0 0.0
2017-Apr-19 18:59N 58°08' E 007°59'0 0.0
2017-Apr-19 18:29N 58°08' E 007°59'0 0.0
2017-Apr-19 17:59N 58°08' E 007°59'0 0.0
2017-Apr-19 17:29N 58°08' E 007°59'0 0.0
2017-Apr-19 16:59N 58°08' E 007°59'0 0.0
2017-Apr-19 16:29N 58°08' E 007°59'0 0.0
2017-Apr-19 15:59N 58°08' E 007°59'0 0.2
2017-Apr-19 15:30N 58°07' E 007°59'1 1.2
2017-Apr-19 14:58N 58°08' E 007°59'0 0.1
2017-Apr-19 14:28N 58°08' E 007°59'0 0.0
2017-Apr-19 13:28N 58°08' E 007°59'0 0.0
2017-Apr-19 12:58N 58°08' E 007°59'0 0.0
2017-Apr-19 12:28N 58°08' E 007°59'0 0.0
2017-Apr-19 11:58N 58°08' E 007°59'0 0.0
2017-Apr-19 11:28N 58°08' E 007°59'0 0.2
2017-Apr-19 10:58N 58°08' E 007°59'0 0.1
2017-Apr-19 10:28N 58°08' E 007°59'0 0.1
2017-Apr-19 09:58N 58°08' E 007°59'0 0.1
2017-Apr-19 09:28N 58°08' E 007°59'0 0.1
2017-Apr-19 08:58N 58°08' E 007°59'0 0.0
2017-Apr-19 08:28N 58°08' E 007°59'0 0.1
2017-Apr-19 07:58N 58°08' E 007°59'0 0.1
2017-Apr-19 07:28N 58°08' E 007°59'0 0.0
2017-Apr-19 06:58N 58°08' E 007°59'0 0.0
2017-Apr-19 06:28N 58°08' E 007°59'0 0.0
2017-Apr-19 05:58N 58°08' E 007°59'0 0.0
2017-Apr-19 05:28N 58°08' E 007°59'0 0.0
2017-Apr-19 04:58N 58°08' E 007°59'0 0.0
2017-Apr-19 04:28N 58°08' E 007°59'0 0.0
2017-Apr-19 03:58N 58°08' E 007°59'0 0.0
2017-Apr-19 03:28N 58°08' E 007°59'0 0.0
2017-Apr-19 02:58N 58°08' E 007°59'0 0.0
2017-Apr-19 02:28N 58°08' E 007°59'0 0.0
2017-Apr-19 01:58N 58°08' E 007°59'0 0.0
2017-Apr-19 01:28N 58°08' E 007°59'0 0.0
2017-Apr-19 00:58N 58°08' E 007°59'0 0.0
2017-Apr-19 00:28N 58°08' E 007°59'0 0.0
2017-Apr-18 23:58N 58°08' E 007°59'0 0.0
2017-Apr-18 23:28N 58°08' E 007°59'0 0.0
2017-Apr-18 22:58N 58°08' E 007°59'0 0.0
2017-Apr-18 22:28N 58°08' E 007°59'0 0.0
2017-Apr-18 21:58N 58°08' E 007°59'0 0.0
2017-Apr-18 21:28N 58°08' E 007°59'0 0.0
2017-Apr-18 20:58N 58°08' E 007°59'0 0.0
2017-Apr-18 20:28N 58°08' E 007°59'0 0.0
2017-Apr-18 19:58N 58°08' E 007°59'0 0.0
2017-Apr-18 19:28N 58°08' E 007°59'0 0.0
2017-Apr-18 18:58N 58°08' E 007°59'0 0.0
2017-Apr-18 18:28N 58°08' E 007°59'0 0.0
2017-Apr-18 17:58N 58°08' E 007°59'0 0.0
2017-Apr-18 17:28N 58°08' E 007°59'0 0.0
2017-Apr-18 16:58N 58°08' E 007°59'0 0.1
2017-Apr-18 16:28N 58°08' E 007°59'0 0.0
2017-Apr-18 15:58N 58°08' E 007°59'0 0.0
2017-Apr-18 15:28N 58°08' E 007°59'0 0.1
2017-Apr-18 14:58N 58°08' E 007°59'0 0.1
2017-Apr-18 13:58N 58°08' E 007°59'0 0.0
2017-Apr-18 13:28N 58°08' E 007°59'0 0.0
2017-Apr-18 12:58N 58°08' E 007°59'0 0.0
2017-Apr-18 12:28N 58°08' E 007°59'0 0.0
2017-Apr-18 11:58N 58°08' E 007°59'0 0.0
2017-Apr-18 11:28N 58°08' E 007°59'0 0.0
2017-Apr-18 10:58N 58°08' E 007°59'0 0.1
2017-Apr-18 10:28N 58°08' E 007°59'0 0.0
2017-Apr-18 09:58N 58°08' E 007°59'0 0.0
2017-Apr-18 09:28N 58°08' E 007°59'0 0.0
2017-Apr-18 09:01N 58°08' E 007°59'0 0.0
2017-Apr-18 08:31N 58°08' E 007°59'0 0.0
2017-Apr-18 08:00N 58°08' E 007°59'0 0.0
2017-Apr-18 07:30N 58°08' E 007°59'0 0.0
2017-Apr-18 07:00N 58°08' E 007°59'0 0.0
2017-Apr-18 06:30N 58°08' E 007°59'0 0.1
2017-Apr-18 06:00N 58°08' E 007°59'0 0.0
2017-Apr-18 05:24N 58°08' E 007°59'0 0.0
2017-Apr-18 05:00N 58°08' E 007°59'0 0.0
2017-Apr-18 04:30N 58°08' E 007°59'0 0.0
2017-Apr-18 04:00N 58°08' E 007°59'0 0.0
2017-Apr-18 03:30N 58°08' E 007°59'0 0.0
2017-Apr-18 03:00N 58°08' E 007°59'0 0.0
2017-Apr-18 02:24N 58°08' E 007°59'0 0.0
2017-Apr-18 02:00N 58°08' E 007°59'0 0.0
2017-Apr-18 01:30N 58°08' E 007°59'0 0.0
2017-Apr-18 01:00N 58°08' E 007°59'0 0.1
2017-Apr-18 00:30N 58°08' E 007°59'  

Dump ship's entire track history